ELW weather

Ellamar Seaplane Base
Ellamar, Alaska, United States

Public forecast

Using degrees Fahrenheit for public forecast. Weather courtesy of forecast.io.

Closest aviation weather report (METAR) to Ellamar Seaplane Base

Closest report is Valdez Pioneer Field, 19.6 nm (36.3 km) NE. Retrieved 2020/01/23 12:56 UTC (48 minutes ago):

PAVD 231256Z AUTO VRB03KT 10SM CLR M10/M14 A2946 RMK AO2 SNB11E23 SLP975 P0000 T11001144 FZRANO

Closest aviation forecast (TAF) to Ellamar Seaplane Base

Closest forecast is Valdez Pioneer Field, 19.6 nm (36.3 km) NE. Retrieved 2020/01/23 12:39 UTC (1 hour ago):

TAF PAVD 231137Z 2312/2412 06007G15KT P6SM -SHSN BKN070 FM231600 07010G20KT P6SM SCT070 FM240500 05015G25KT P6SM SKC AMD LTD TO CLD VIS AND WIND